sensor_id;sensor_type;location;lat;lon;timestamp;P1;durP1;ratioP1;P2;durP2;ratioP2
85095;SDS011;75436;53.502;10.030;2024-03-02T00:00:49;27.13;;;11.98;;
85095;SDS011;75436;53.502;10.030;2024-03-02T00:03:16;26.33;;;12.68;;
85095;SDS011;75436;53.502;10.030;2024-03-02T00:05:43;27.20;;;12.25;;
85095;SDS011;75436;53.502;10.030;2024-03-02T00:08:09;24.83;;;11.88;;
85095;SDS011;75436;53.502;10.030;2024-03-02T00:10:36;25.33;;;11.85;;
85095;SDS011;75436;53.502;10.030;2024-03-02T00:13:04;23.45;;;11.38;;
85095;SDS011;75436;53.502;10.030;2024-03-02T00:18:14;27.42;;;12.07;;
85095;SDS011;75436;53.502;10.030;2024-03-02T00:20:45;29.08;;;12.73;;
85095;SDS011;75436;53.502;10.030;2024-03-02T00:23:12;28.40;;;12.23;;
85095;SDS011;75436;53.502;10.030;2024-03-02T00:25:47;26.23;;;12.38;;
85095;SDS011;75436;53.502;10.030;2024-03-02T00:28:25;30.88;;;13.73;;
85095;SDS011;75436;53.502;10.030;2024-03-02T00:31:01;31.70;;;13.82;;
85095;SDS011;75436;53.502;10.030;2024-03-02T00:36:04;26.88;;;12.85;;
85095;SDS011;75436;53.502;10.030;2024-03-02T00:38:31;31.48;;;14.15;;
85095;SDS011;75436;53.502;10.030;2024-03-02T00:40:59;32.40;;;13.75;;
85095;SDS011;75436;53.502;10.030;2024-03-02T00:43:47;35.25;;;14.02;;
85095;SDS011;75436;53.502;10.030;2024-03-02T00:46:34;34.25;;;14.40;;
85095;SDS011;75436;53.502;10.030;2024-03-02T00:49:18;31.67;;;14.27;;
85095;SDS011;75436;53.502;10.030;2024-03-02T00:51:48;30.15;;;14.00;;
85095;SDS011;75436;53.502;10.030;2024-03-02T00:54:21;36.10;;;15.00;;
85095;SDS011;75436;53.502;10.030;2024-03-02T00:56:49;38.00;;;15.77;;
85095;SDS011;75436;53.502;10.030;2024-03-02T00:59:15;34.00;;;14.73;;
85095;SDS011;75436;53.502;10.030;2024-03-02T01:01:41;36.95;;;15.25;;
85095;SDS011;75436;53.502;10.030;2024-03-02T01:04:07;37.33;;;14.55;;
85095;SDS011;75436;53.502;10.030;2024-03-02T01:06:34;37.75;;;15.43;;
85095;SDS011;75436;53.502;10.030;2024-03-02T01:09:00;37.72;;;16.02;;
85095;SDS011;75436;53.502;10.030;2024-03-02T01:11:26;44.65;;;16.63;;
85095;SDS011;75436;53.502;10.030;2024-03-02T01:13:51;39.45;;;16.83;;
85095;SDS011;75436;53.502;10.030;2024-03-02T01:16:17;39.15;;;16.13;;
85095;SDS011;75436;53.502;10.030;2024-03-02T01:18:42;42.70;;;17.02;;
85095;SDS011;75436;53.502;10.030;2024-03-02T01:21:08;32.72;;;15.27;;
85095;SDS011;75436;53.502;10.030;2024-03-02T01:23:33;36.22;;;16.80;;
85095;SDS011;75436;53.502;10.030;2024-03-02T01:25:59;37.97;;;17.25;;
85095;SDS011;75436;53.502;10.030;2024-03-02T01:28:24;35.20;;;16.80;;
85095;SDS011;75436;53.502;10.030;2024-03-02T01:30:50;33.80;;;15.23;;
85095;SDS011;75436;53.502;10.030;2024-03-02T01:33:19;38.33;;;15.95;;
85095;SDS011;75436;53.502;10.030;2024-03-02T01:35:45;38.88;;;17.02;;
85095;SDS011;75436;53.502;10.030;2024-03-02T01:38:10;41.88;;;16.60;;
85095;SDS011;75436;53.502;10.030;2024-03-02T01:40:36;41.83;;;16.92;;
85095;SDS011;75436;53.502;10.030;2024-03-02T01:43:06;45.08;;;18.52;;
85095;SDS011;75436;53.502;10.030;2024-03-02T01:45:32;37.78;;;16.33;;
85095;SDS011;75436;53.502;10.030;2024-03-02T01:47:58;38.15;;;16.33;;
85095;SDS011;75436;53.502;10.030;2024-03-02T01:50:28;34.78;;;15.68;;
85095;SDS011;75436;53.502;10.030;2024-03-02T01:55:24;35.40;;;15.05;;
85095;SDS011;75436;53.502;10.030;2024-03-02T01:57:50;38.85;;;15.70;;
85095;SDS011;75436;53.502;10.030;2024-03-02T02:00:17;36.63;;;15.63;;
85095;SDS011;75436;53.502;10.030;2024-03-02T02:02:45;40.53;;;17.02;;
85095;SDS011;75436;53.502;10.030;2024-03-02T02:05:11;42.53;;;17.25;;
85095;SDS011;75436;53.502;10.030;2024-03-02T02:07:38;38.60;;;16.90;;
85095;SDS011;75436;53.502;10.030;2024-03-02T02:10:03;40.50;;;16.45;;
85095;SDS011;75436;53.502;10.030;2024-03-02T02:12:29;36.90;;;17.25;;
85095;SDS011;75436;53.502;10.030;2024-03-02T02:14:55;41.05;;;16.92;;
85095;SDS011;75436;53.502;10.030;2024-03-02T02:17:20;39.70;;;16.17;;
85095;SDS011;75436;53.502;10.030;2024-03-02T02:19:46;40.33;;;16.55;;
85095;SDS011;75436;53.502;10.030;2024-03-02T02:22:11;43.42;;;17.45;;
85095;SDS011;75436;53.502;10.030;2024-03-02T02:24:43;34.25;;;16.05;;
85095;SDS011;75436;53.502;10.030;2024-03-02T02:27:08;43.45;;;16.85;;
85095;SDS011;75436;53.502;10.030;2024-03-02T02:29:35;41.67;;;17.48;;
85095;SDS011;75436;53.502;10.030;2024-03-02T02:32:00;39.97;;;17.55;;
85095;SDS011;75436;53.502;10.030;2024-03-02T02:34:26;39.88;;;16.33;;
85095;SDS011;75436;53.502;10.030;2024-03-02T02:36:51;41.78;;;17.88;;
85095;SDS011;75436;53.502;10.030;2024-03-02T02:39:17;40.33;;;16.85;;
85095;SDS011;75436;53.502;10.030;2024-03-02T02:41:47;46.70;;;18.23;;
85095;SDS011;75436;53.502;10.030;2024-03-02T02:44:13;37.72;;;16.25;;
85095;SDS011;75436;53.502;10.030;2024-03-02T02:46:39;46.80;;;18.15;;
85095;SDS011;75436;53.502;10.030;2024-03-02T02:49:05;47.90;;;17.95;;
85095;SDS011;75436;53.502;10.030;2024-03-02T02:51:31;39.95;;;16.60;;
85095;SDS011;75436;53.502;10.030;2024-03-02T02:53:56;40.72;;;16.75;;
85095;SDS011;75436;53.502;10.030;2024-03-02T02:56:22;34.55;;;15.32;;
85095;SDS011;75436;53.502;10.030;2024-03-02T02:58:47;38.05;;;16.23;;
85095;SDS011;75436;53.502;10.030;2024-03-02T03:01:13;40.65;;;17.20;;
85095;SDS011;75436;53.502;10.030;2024-03-02T03:03:38;43.40;;;16.58;;
85095;SDS011;75436;53.502;10.030;2024-03-02T03:06:04;41.13;;;16.98;;
85095;SDS011;75436;53.502;10.030;2024-03-02T03:08:29;40.00;;;16.25;;
85095;SDS011;75436;53.502;10.030;2024-03-02T03:10:54;40.15;;;17.52;;
85095;SDS011;75436;53.502;10.030;2024-03-02T03:13:20;42.05;;;16.70;;
85095;SDS011;75436;53.502;10.030;2024-03-02T03:15:45;41.28;;;16.92;;
85095;SDS011;75436;53.502;10.030;2024-03-02T03:18:11;39.88;;;17.20;;
85095;SDS011;75436;53.502;10.030;2024-03-02T03:20:36;39.38;;;17.85;;
85095;SDS011;75436;53.502;10.030;2024-03-02T03:23:01;39.13;;;18.13;;
85095;SDS011;75436;53.502;10.030;2024-03-02T03:25:29;38.72;;;17.27;;
85095;SDS011;75436;53.502;10.030;2024-03-02T03:27:55;35.40;;;16.25;;
85095;SDS011;75436;53.502;10.030;2024-03-02T03:30:20;41.53;;;16.85;;
85095;SDS011;75436;53.502;10.030;2024-03-02T03:32:46;44.33;;;17.45;;
85095;SDS011;75436;53.502;10.030;2024-03-02T03:35:13;40.05;;;16.30;;
85095;SDS011;75436;53.502;10.030;2024-03-02T03:37:40;43.00;;;16.92;;
85095;SDS011;75436;53.502;10.030;2024-03-02T03:40:05;38.33;;;17.60;;
85095;SDS011;75436;53.502;10.030;2024-03-02T03:42:35;37.60;;;16.48;;
85095;SDS011;75436;53.502;10.030;2024-03-02T03:45:01;41.85;;;18.33;;
85095;SDS011;75436;53.502;10.030;2024-03-02T03:47:31;37.75;;;17.38;;
85095;SDS011;75436;53.502;10.030;2024-03-02T03:49:57;37.40;;;17.63;;
85095;SDS011;75436;53.502;10.030;2024-03-02T03:52:23;40.80;;;16.48;;
85095;SDS011;75436;53.502;10.030;2024-03-02T03:54:48;39.60;;;17.10;;
85095;SDS011;75436;53.502;10.030;2024-03-02T03:57:14;38.33;;;16.00;;
85095;SDS011;75436;53.502;10.030;2024-03-02T03:59:41;34.83;;;15.77;;
85095;SDS011;75436;53.502;10.030;2024-03-02T04:02:06;34.97;;;15.25;;
85095;SDS011;75436;53.502;10.030;2024-03-02T04:04:32;37.05;;;15.73;;
85095;SDS011;75436;53.502;10.030;2024-03-02T04:06:58;38.38;;;17.33;;
85095;SDS011;75436;53.502;10.030;2024-03-02T04:09:24;35.47;;;15.60;;
85095;SDS011;75436;53.502;10.030;2024-03-02T04:11:50;37.47;;;17.13;;
85095;SDS011;75436;53.502;10.030;2024-03-02T04:14:16;35.05;;;15.38;;
85095;SDS011;75436;53.502;10.030;2024-03-02T04:16:41;34.58;;;15.55;;
85095;SDS011;75436;53.502;10.030;2024-03-02T04:19:07;38.65;;;16.38;;
85095;SDS011;75436;53.502;10.030;2024-03-02T04:21:32;43.05;;;16.30;;
85095;SDS011;75436;53.502;10.030;2024-03-02T04:23:58;34.72;;;16.10;;
85095;SDS011;75436;53.502;10.030;2024-03-02T04:26:24;35.50;;;15.77;;
85095;SDS011;75436;53.502;10.030;2024-03-02T04:28:51;34.47;;;15.35;;
85095;SDS011;75436;53.502;10.030;2024-03-02T04:31:19;36.13;;;15.77;;
85095;SDS011;75436;53.502;10.030;2024-03-02T04:33:45;35.90;;;16.60;;
85095;SDS011;75436;53.502;10.030;2024-03-02T04:36:11;37.83;;;17.02;;
85095;SDS011;75436;53.502;10.030;2024-03-02T04:38:37;38.30;;;16.63;;
85095;SDS011;75436;53.502;10.030;2024-03-02T04:41:04;31.92;;;15.60;;
85095;SDS011;75436;53.502;10.030;2024-03-02T04:43:33;36.65;;;16.25;;
85095;SDS011;75436;53.502;10.030;2024-03-02T04:46:00;36.28;;;16.40;;
85095;SDS011;75436;53.502;10.030;2024-03-02T04:48:26;38.65;;;16.30;;
85095;SDS011;75436;53.502;10.030;2024-03-02T04:50:52;37.10;;;16.45;;
85095;SDS011;75436;53.502;10.030;2024-03-02T04:53:17;37.30;;;15.10;;
85095;SDS011;75436;53.502;10.030;2024-03-02T04:55:43;39.72;;;16.52;;
85095;SDS011;75436;53.502;10.030;2024-03-02T04:58:08;34.22;;;14.63;;
85095;SDS011;75436;53.502;10.030;2024-03-02T05:00:34;37.33;;;16.05;;
85095;SDS011;75436;53.502;10.030;2024-03-02T05:03:00;38.72;;;16.90;;
85095;SDS011;75436;53.502;10.030;2024-03-02T05:05:26;37.30;;;16.05;;
85095;SDS011;75436;53.502;10.030;2024-03-02T05:07:51;35.13;;;15.10;;
85095;SDS011;75436;53.502;10.030;2024-03-02T05:10:16;32.13;;;15.38;;
85095;SDS011;75436;53.502;10.030;2024-03-02T05:12:42;36.05;;;15.85;;
85095;SDS011;75436;53.502;10.030;2024-03-02T05:15:07;33.40;;;16.13;;
85095;SDS011;75436;53.502;10.030;2024-03-02T05:17:35;32.45;;;15.48;;
85095;SDS011;75436;53.502;10.030;2024-03-02T05:20:02;36.35;;;15.80;;
85095;SDS011;75436;53.502;10.030;2024-03-02T05:22:29;36.58;;;16.02;;
85095;SDS011;75436;53.502;10.030;2024-03-02T05:24:54;41.30;;;16.40;;
85095;SDS011;75436;53.502;10.030;2024-03-02T05:27:19;36.08;;;15.48;;
85095;SDS011;75436;53.502;10.030;2024-03-02T05:29:45;35.53;;;16.40;;
85095;SDS011;75436;53.502;10.030;2024-03-02T05:32:10;30.75;;;14.65;;
85095;SDS011;75436;53.502;10.030;2024-03-02T05:34:35;37.25;;;16.50;;
85095;SDS011;75436;53.502;10.030;2024-03-02T05:37:01;38.50;;;16.05;;
85095;SDS011;75436;53.502;10.030;2024-03-02T05:39:27;41.95;;;16.13;;
85095;SDS011;75436;53.502;10.030;2024-03-02T05:41:52;33.92;;;15.40;;
85095;SDS011;75436;53.502;10.030;2024-03-02T05:44:17;39.53;;;15.18;;
85095;SDS011;75436;53.502;10.030;2024-03-02T05:46:44;35.80;;;15.65;;
85095;SDS011;75436;53.502;10.030;2024-03-02T05:49:10;40.13;;;15.85;;
85095;SDS011;75436;53.502;10.030;2024-03-02T05:51:35;39.35;;;15.57;;
85095;SDS011;75436;53.502;10.030;2024-03-02T05:54:01;35.97;;;16.00;;
85095;SDS011;75436;53.502;10.030;2024-03-02T05:56:27;35.03;;;15.30;;
85095;SDS011;75436;53.502;10.030;2024-03-02T05:58:53;37.70;;;15.73;;
85095;SDS011;75436;53.502;10.030;2024-03-02T06:04:09;32.38;;;15.07;;
85095;SDS011;75436;53.502;10.030;2024-03-02T06:06:39;34.25;;;14.65;;
85095;SDS011;75436;53.502;10.030;2024-03-02T06:09:05;39.70;;;16.23;;
85095;SDS011;75436;53.502;10.030;2024-03-02T06:11:36;35.72;;;15.77;;
85095;SDS011;75436;53.502;10.030;2024-03-02T06:14:02;37.72;;;14.98;;
85095;SDS011;75436;53.502;10.030;2024-03-02T06:16:32;35.03;;;16.02;;
85095;SDS011;75436;53.502;10.030;2024-03-02T06:18:59;38.80;;;15.55;;
85095;SDS011;75436;53.502;10.030;2024-03-02T06:21:25;40.60;;;15.43;;
85095;SDS011;75436;53.502;10.030;2024-03-02T06:23:51;35.97;;;15.50;;
85095;SDS011;75436;53.502;10.030;2024-03-02T06:26:18;38.63;;;16.20;;
85095;SDS011;75436;53.502;10.030;2024-03-02T06:28:44;36.13;;;15.50;;
85095;SDS011;75436;53.502;10.030;2024-03-02T06:31:10;38.65;;;15.38;;
85095;SDS011;75436;53.502;10.030;2024-03-02T06:33:36;38.10;;;16.45;;
85095;SDS011;75436;53.502;10.030;2024-03-02T06:36:02;37.33;;;16.55;;
85095;SDS011;75436;53.502;10.030;2024-03-02T06:38:31;34.53;;;15.35;;
85095;SDS011;75436;53.502;10.030;2024-03-02T06:40:57;36.63;;;15.43;;
85095;SDS011;75436;53.502;10.030;2024-03-02T06:43:23;32.30;;;15.77;;
85095;SDS011;75436;53.502;10.030;2024-03-02T06:45:51;34.90;;;15.52;;
85095;SDS011;75436;53.502;10.030;2024-03-02T06:48:17;33.15;;;15.90;;
85095;SDS011;75436;53.502;10.030;2024-03-02T06:50:45;31.15;;;14.73;;
85095;SDS011;75436;53.502;10.030;2024-03-02T06:53:12;37.78;;;15.82;;
85095;SDS011;75436;53.502;10.030;2024-03-02T06:55:38;34.63;;;14.68;;
85095;SDS011;75436;53.502;10.030;2024-03-02T06:58:04;37.88;;;14.65;;
85095;SDS011;75436;53.502;10.030;2024-03-02T07:00:30;32.50;;;15.60;;
85095;SDS011;75436;53.502;10.030;2024-03-02T07:02:55;33.50;;;14.38;;
85095;SDS011;75436;53.502;10.030;2024-03-02T07:05:20;34.20;;;15.43;;
85095;SDS011;75436;53.502;10.030;2024-03-02T07:07:46;33.63;;;14.65;;
85095;SDS011;75436;53.502;10.030;2024-03-02T07:10:11;30.33;;;13.40;;
85095;SDS011;75436;53.502;10.030;2024-03-02T07:12:37;29.98;;;14.45;;
85095;SDS011;75436;53.502;10.030;2024-03-02T07:15:03;31.00;;;13.82;;
85095;SDS011;75436;53.502;10.030;2024-03-02T07:17:29;32.70;;;15.32;;
85095;SDS011;75436;53.502;10.030;2024-03-02T07:19:57;35.92;;;15.52;;
85095;SDS011;75436;53.502;10.030;2024-03-02T07:22:23;32.72;;;14.65;;
85095;SDS011;75436;53.502;10.030;2024-03-02T07:24:50;33.60;;;15.18;;
85095;SDS011;75436;53.502;10.030;2024-03-02T07:27:16;31.88;;;14.57;;
85095;SDS011;75436;53.502;10.030;2024-03-02T07:29:42;30.60;;;14.13;;
85095;SDS011;75436;53.502;10.030;2024-03-02T07:32:08;30.80;;;14.15;;
85095;SDS011;75436;53.502;10.030;2024-03-02T07:34:35;31.00;;;15.10;;
85095;SDS011;75436;53.502;10.030;2024-03-02T07:37:03;31.23;;;15.07;;
85095;SDS011;75436;53.502;10.030;2024-03-02T07:39:29;33.97;;;14.68;;
85095;SDS011;75436;53.502;10.030;2024-03-02T07:41:55;33.40;;;14.50;;
85095;SDS011;75436;53.502;10.030;2024-03-02T07:44:21;29.88;;;13.90;;
85095;SDS011;75436;53.502;10.030;2024-03-02T07:46:48;35.38;;;15.07;;
85095;SDS011;75436;53.502;10.030;2024-03-02T07:49:17;30.55;;;14.57;;
85095;SDS011;75436;53.502;10.030;2024-03-02T07:51:43;28.25;;;14.18;;
85095;SDS011;75436;53.502;10.030;2024-03-02T07:54:08;30.48;;;14.63;;
85095;SDS011;75436;53.502;10.030;2024-03-02T07:56:34;30.75;;;14.27;;
85095;SDS011;75436;53.502;10.030;2024-03-02T07:59:03;28.55;;;13.50;;
85095;SDS011;75436;53.502;10.030;2024-03-02T08:01:30;31.00;;;14.27;;
85095;SDS011;75436;53.502;10.030;2024-03-02T08:03:57;30.70;;;14.48;;
85095;SDS011;75436;53.502;10.030;2024-03-02T08:06:26;29.98;;;13.70;;
85095;SDS011;75436;53.502;10.030;2024-03-02T08:08:53;30.92;;;15.10;;
85095;SDS011;75436;53.502;10.030;2024-03-02T08:11:20;33.05;;;14.35;;
85095;SDS011;75436;53.502;10.030;2024-03-02T08:13:47;31.98;;;15.10;;
85095;SDS011;75436;53.502;10.030;2024-03-02T08:16:13;30.05;;;14.57;;
85095;SDS011;75436;53.502;10.030;2024-03-02T08:18:40;32.47;;;15.60;;
85095;SDS011;75436;53.502;10.030;2024-03-02T08:21:05;31.35;;;14.65;;
85095;SDS011;75436;53.502;10.030;2024-03-02T08:23:30;28.65;;;14.20;;
85095;SDS011;75436;53.502;10.030;2024-03-02T08:25:57;28.65;;;14.32;;
85095;SDS011;75436;53.502;10.030;2024-03-02T08:28:22;29.00;;;13.95;;
85095;SDS011;75436;53.502;10.030;2024-03-02T08:30:48;25.25;;;13.85;;
85095;SDS011;75436;53.502;10.030;2024-03-02T08:33:13;34.33;;;15.32;;
85095;SDS011;75436;53.502;10.030;2024-03-02T08:35:38;31.15;;;14.07;;
85095;SDS011;75436;53.502;10.030;2024-03-02T08:38:05;30.40;;;15.00;;
85095;SDS011;75436;53.502;10.030;2024-03-02T08:40:31;30.15;;;13.55;;
85095;SDS011;75436;53.502;10.030;2024-03-02T08:42:58;31.80;;;14.25;;
85095;SDS011;75436;53.502;10.030;2024-03-02T08:45:23;26.52;;;13.13;;
85095;SDS011;75436;53.502;10.030;2024-03-02T08:47:49;31.50;;;14.15;;
85095;SDS011;75436;53.502;10.030;2024-03-02T08:50:14;23.33;;;12.10;;
85095;SDS011;75436;53.502;10.030;2024-03-02T08:52:40;30.83;;;13.18;;
85095;SDS011;75436;53.502;10.030;2024-03-02T08:55:05;27.85;;;13.98;;
85095;SDS011;75436;53.502;10.030;2024-03-02T08:57:32;28.73;;;14.15;;
85095;SDS011;75436;53.502;10.030;2024-03-02T08:59:58;28.17;;;13.25;;
85095;SDS011;75436;53.502;10.030;2024-03-02T09:02:25;27.10;;;13.82;;
85095;SDS011;75436;53.502;10.030;2024-03-02T09:04:52;26.92;;;12.68;;
85095;SDS011;75436;53.502;10.030;2024-03-02T09:07:17;25.90;;;13.55;;
85095;SDS011;75436;53.502;10.030;2024-03-02T09:09:43;31.13;;;13.57;;
85095;SDS011;75436;53.502;10.030;2024-03-02T09:12:09;24.52;;;12.63;;
85095;SDS011;75436;53.502;10.030;2024-03-02T09:14:34;25.42;;;12.68;;
85095;SDS011;75436;53.502;10.030;2024-03-02T09:17:01;26.52;;;12.30;;
85095;SDS011;75436;53.502;10.030;2024-03-02T09:19:28;22.70;;;11.48;;
85095;SDS011;75436;53.502;10.030;2024-03-02T09:21:54;21.17;;;11.60;;
85095;SDS011;75436;53.502;10.030;2024-03-02T09:24:20;24.75;;;11.98;;
85095;SDS011;75436;53.502;10.030;2024-03-02T09:26:46;20.67;;;11.30;;
85095;SDS011;75436;53.502;10.030;2024-03-02T09:29:12;23.55;;;12.30;;
85095;SDS011;75436;53.502;10.030;2024-03-02T09:31:40;26.85;;;12.02;;
85095;SDS011;75436;53.502;10.030;2024-03-02T09:34:07;21.77;;;11.85;;
85095;SDS011;75436;53.502;10.030;2024-03-02T09:36:32;21.95;;;11.38;;
85095;SDS011;75436;53.502;10.030;2024-03-02T09:38:58;24.70;;;11.25;;
85095;SDS011;75436;53.502;10.030;2024-03-02T09:41:23;21.88;;;10.95;;
85095;SDS011;75436;53.502;10.030;2024-03-02T09:43:49;21.23;;;10.27;;
85095;SDS011;75436;53.502;10.030;2024-03-02T09:46:16;18.30;;;9.95;;
85095;SDS011;75436;53.502;10.030;2024-03-02T09:48:41;17.63;;;9.70;;
85095;SDS011;75436;53.502;10.030;2024-03-02T09:51:10;20.98;;;10.00;;
85095;SDS011;75436;53.502;10.030;2024-03-02T09:53:36;17.55;;;9.45;;
85095;SDS011;75436;53.502;10.030;2024-03-02T09:56:02;17.58;;;9.43;;
85095;SDS011;75436;53.502;10.030;2024-03-02T09:58:29;16.88;;;9.52;;
85095;SDS011;75436;53.502;10.030;2024-03-02T10:00:55;15.18;;;8.82;;
85095;SDS011;75436;53.502;10.030;2024-03-02T10:03:24;18.05;;;9.82;;
85095;SDS011;75436;53.502;10.030;2024-03-02T10:05:51;14.73;;;8.45;;
85095;SDS011;75436;53.502;10.030;2024-03-02T10:08:17;16.10;;;8.77;;
85095;SDS011;75436;53.502;10.030;2024-03-02T10:10:42;14.90;;;9.35;;
85095;SDS011;75436;53.502;10.030;2024-03-02T10:13:12;16.02;;;8.75;;
85095;SDS011;75436;53.502;10.030;2024-03-02T10:15:40;17.38;;;8.90;;
85095;SDS011;75436;53.502;10.030;2024-03-02T10:18:09;15.88;;;8.98;;
85095;SDS011;75436;53.502;10.030;2024-03-02T10:20:38;16.63;;;8.50;;
85095;SDS011;75436;53.502;10.030;2024-03-02T10:23:14;15.23;;;8.90;;
85095;SDS011;75436;53.502;10.030;2024-03-02T10:25:41;17.20;;;8.95;;
85095;SDS011;75436;53.502;10.030;2024-03-02T10:28:08;16.27;;;8.27;;
85095;SDS011;75436;53.502;10.030;2024-03-02T10:30:34;15.10;;;8.75;;
85095;SDS011;75436;53.502;10.030;2024-03-02T10:33:04;15.45;;;8.27;;
85095;SDS011;75436;53.502;10.030;2024-03-02T10:35:31;15.85;;;8.18;;
85095;SDS011;75436;53.502;10.030;2024-03-02T10:38:00;14.07;;;8.27;;
85095;SDS011;75436;53.502;10.030;2024-03-02T10:40:28;13.40;;;7.68;;
85095;SDS011;75436;53.502;10.030;2024-03-02T10:42:54;14.30;;;8.00;;
85095;SDS011;75436;53.502;10.030;2024-03-02T10:45:21;14.05;;;7.28;;
85095;SDS011;75436;53.502;10.030;2024-03-02T10:47:48;12.82;;;7.60;;
85095;SDS011;75436;53.502;10.030;2024-03-02T10:50:15;11.63;;;6.97;;
85095;SDS011;75436;53.502;10.030;2024-03-02T10:52:40;14.73;;;7.18;;
85095;SDS011;75436;53.502;10.030;2024-03-02T10:55:06;13.30;;;7.13;;
85095;SDS011;75436;53.502;10.030;2024-03-02T10:57:53;14.02;;;6.78;;
85095;SDS011;75436;53.502;10.030;2024-03-02T11:00:21;13.20;;;6.85;;
85095;SDS011;75436;53.502;10.030;2024-03-02T11:02:56;11.55;;;6.32;;
85095;SDS011;75436;53.502;10.030;2024-03-02T11:05:27;11.52;;;6.10;;
85095;SDS011;75436;53.502;10.030;2024-03-02T11:08:02;11.02;;;6.55;;
85095;SDS011;75436;53.502;10.030;2024-03-02T11:10:34;10.50;;;6.13;;
85095;SDS011;75436;53.502;10.030;2024-03-02T11:13:05;12.50;;;6.38;;
85095;SDS011;75436;53.502;10.030;2024-03-02T11:15:37;13.18;;;6.55;;
85095;SDS011;75436;53.502;10.030;2024-03-02T11:18:08;12.90;;;6.32;;
85095;SDS011;75436;53.502;10.030;2024-03-02T11:20:39;11.82;;;6.50;;
85095;SDS011;75436;53.502;10.030;2024-03-02T11:23:06;10.93;;;6.88;;
85095;SDS011;75436;53.502;10.030;2024-03-02T11:25:33;11.52;;;6.15;;
85095;SDS011;75436;53.502;10.030;2024-03-02T11:27:59;10.75;;;5.88;;
85095;SDS011;75436;53.502;10.030;2024-03-02T11:35:35;10.45;;;6.05;;
85095;SDS011;75436;53.502;10.030;2024-03-02T11:38:10;12.32;;;5.57;;
85095;SDS011;75436;53.502;10.030;2024-03-02T11:40:38;8.77;;;5.38;;
85095;SDS011;75436;53.502;10.030;2024-03-02T11:43:05;11.75;;;5.57;;
85095;SDS011;75436;53.502;10.030;2024-03-02T11:45:32;11.80;;;5.65;;
85095;SDS011;75436;53.502;10.030;2024-03-02T11:47:58;11.23;;;5.50;;
85095;SDS011;75436;53.502;10.030;2024-03-02T11:51:07;11.13;;;5.68;;
85095;SDS011;75436;53.502;10.030;2024-03-02T11:53:20;10.65;;;5.32;;
85095;SDS011;75436;53.502;10.030;2024-03-02T11:55:46;11.30;;;5.07;;
85095;SDS011;75436;53.502;10.030;2024-03-02T11:58:12;8.70;;;4.95;;
85095;SDS011;75436;53.502;10.030;2024-03-02T12:00:39;10.50;;;5.40;;
85095;SDS011;75436;53.502;10.030;2024-03-02T12:03:05;9.02;;;5.07;;
85095;SDS011;75436;53.502;10.030;2024-03-02T12:05:33;9.77;;;5.18;;
85095;SDS011;75436;53.502;10.030;2024-03-02T12:08:05;10.68;;;6.00;;
85095;SDS011;75436;53.502;10.030;2024-03-02T12:10:32;10.00;;;5.85;;
85095;SDS011;75436;53.502;10.030;2024-03-02T12:13:01;11.38;;;5.82;;
85095;SDS011;75436;53.502;10.030;2024-03-02T12:15:29;8.30;;;4.78;;
85095;SDS011;75436;53.502;10.030;2024-03-02T12:18:00;10.50;;;5.25;;
85095;SDS011;75436;53.502;10.030;2024-03-02T12:20:29;8.85;;;4.90;;
85095;SDS011;75436;53.502;10.030;2024-03-02T12:23:00;10.23;;;5.03;;
85095;SDS011;75436;53.502;10.030;2024-03-02T12:25:27;7.95;;;4.38;;
85095;SDS011;75436;53.502;10.030;2024-03-02T12:27:57;8.45;;;5.07;;
85095;SDS011;75436;53.502;10.030;2024-03-02T12:30:26;10.13;;;5.70;;
85095;SDS011;75436;53.502;10.030;2024-03-02T12:32:54;9.10;;;4.82;;
85095;SDS011;75436;53.502;10.030;2024-03-02T12:35:20;10.43;;;4.82;;
85095;SDS011;75436;53.502;10.030;2024-03-02T12:37:49;9.85;;;4.93;;
85095;SDS011;75436;53.502;10.030;2024-03-02T12:40:17;9.50;;;5.10;;
85095;SDS011;75436;53.502;10.030;2024-03-02T12:42:47;12.88;;;5.47;;
85095;SDS011;75436;53.502;10.030;2024-03-02T12:45:14;10.75;;;5.45;;
85095;SDS011;75436;53.502;10.030;2024-03-02T12:47:40;9.60;;;5.60;;
85095;SDS011;75436;53.502;10.030;2024-03-02T12:50:07;8.73;;;5.50;;
85095;SDS011;75436;53.502;10.030;2024-03-02T12:52:34;12.85;;;6.00;;
85095;SDS011;75436;53.502;10.030;2024-03-02T12:55:01;9.63;;;5.90;;
85095;SDS011;75436;53.502;10.030;2024-03-02T12:57:30;12.75;;;6.88;;
85095;SDS011;75436;53.502;10.030;2024-03-02T13:00:04;9.68;;;5.55;;
85095;SDS011;75436;53.502;10.030;2024-03-02T13:02:34;9.85;;;5.63;;
85095;SDS011;75436;53.502;10.030;2024-03-02T13:05:06;10.07;;;5.20;;
85095;SDS011;75436;53.502;10.030;2024-03-02T13:07:38;11.32;;;5.97;;
85095;SDS011;75436;53.502;10.030;2024-03-02T13:10:04;11.75;;;5.40;;
85095;SDS011;75436;53.502;10.030;2024-03-02T13:12:33;9.95;;;5.50;;
85095;SDS011;75436;53.502;10.030;2024-03-02T13:15:02;10.25;;;5.63;;
85095;SDS011;75436;53.502;10.030;2024-03-02T13:17:28;10.65;;;5.95;;
85095;SDS011;75436;53.502;10.030;2024-03-02T13:19:58;12.73;;;5.55;;
85095;SDS011;75436;53.502;10.030;2024-03-02T13:22:25;11.20;;;5.78;;
85095;SDS011;75436;53.502;10.030;2024-03-02T13:24:51;10.82;;;5.10;;
85095;SDS011;75436;53.502;10.030;2024-03-02T13:27:19;9.63;;;5.13;;
85095;SDS011;75436;53.502;10.030;2024-03-02T13:29:45;11.07;;;6.18;;
85095;SDS011;75436;53.502;10.030;2024-03-02T13:32:12;12.35;;;5.88;;
85095;SDS011;75436;53.502;10.030;2024-03-02T13:34:39;10.93;;;5.70;;
85095;SDS011;75436;53.502;10.030;2024-03-02T13:37:05;12.43;;;6.18;;
85095;SDS011;75436;53.502;10.030;2024-03-02T13:39:30;9.93;;;5.78;;
85095;SDS011;75436;53.502;10.030;2024-03-02T13:42:00;10.63;;;6.05;;
85095;SDS011;75436;53.502;10.030;2024-03-02T13:44:30;12.10;;;6.32;;
85095;SDS011;75436;53.502;10.030;2024-03-02T13:46:56;12.05;;;6.43;;
85095;SDS011;75436;53.502;10.030;2024-03-02T13:49:23;12.45;;;6.07;;
85095;SDS011;75436;53.502;10.030;2024-03-02T13:51:48;12.73;;;6.32;;
85095;SDS011;75436;53.502;10.030;2024-03-02T13:54:14;11.23;;;6.00;;
85095;SDS011;75436;53.502;10.030;2024-03-02T13:56:39;11.80;;;6.25;;
85095;SDS011;75436;53.502;10.030;2024-03-02T13:59:06;10.52;;;5.65;;
85095;SDS011;75436;53.502;10.030;2024-03-02T14:01:32;10.02;;;5.78;;
85095;SDS011;75436;53.502;10.030;2024-03-02T14:03:58;12.85;;;6.03;;
85095;SDS011;75436;53.502;10.030;2024-03-02T14:06:23;10.95;;;5.70;;
85095;SDS011;75436;53.502;10.030;2024-03-02T14:08:51;11.48;;;6.57;;
85095;SDS011;75436;53.502;10.030;2024-03-02T14:11:16;13.05;;;6.55;;
85095;SDS011;75436;53.502;10.030;2024-03-02T14:13:42;12.95;;;7.20;;
85095;SDS011;75436;53.502;10.030;2024-03-02T14:16:09;13.43;;;6.93;;
85095;SDS011;75436;53.502;10.030;2024-03-02T14:18:36;11.35;;;6.82;;
85095;SDS011;75436;53.502;10.030;2024-03-02T14:21:01;12.30;;;7.15;;
85095;SDS011;75436;53.502;10.030;2024-03-02T14:23:26;11.70;;;6.93;;
85095;SDS011;75436;53.502;10.030;2024-03-02T14:25:54;12.40;;;6.80;;
85095;SDS011;75436;53.502;10.030;2024-03-02T14:28:20;11.65;;;6.50;;